Inglis, Florida
Current Conditions -  °F | °C
As of 10:15 AM on Monday 24 Nov 2014 (Local Time) from KCGC Reporting Station
Overcast Overcast  
Wind Chill: 79°   Ceiling: 1400
Heat Index: 82°   Visibility: 10mi
Dew Point: 72°   Wind: 5mph
Humidity: 78%   Direction: 200°SSW
Pressure: 29.97"   Gusts: NA
Location:  29.03°N, 82.67°W
Report Text: KCGC 241515Z AUTO 20004KT 10SM OVC014 26/22 A2997 RMK AO2
Loading
Personal Weather Stations






























Interactive Weather Map New forecast layout! Learn more

10-Day Weather Forecast

Advertisements
Track Severe Weather on mobile